createdAt,value
2019-03-18T00:01:48.527Z,66.32
2019-03-18T00:05:56.235Z,66.83
2019-03-18T00:10:04.757Z,65.86
2019-03-18T00:14:12.374Z,65.92
2019-03-18T00:18:20.684Z,66.40
2019-03-18T00:22:28.904Z,66.13
2019-03-18T00:26:36.711Z,66.77
2019-03-18T00:30:44.843Z,67.51
2019-03-18T00:34:52.554Z,67.28
2019-03-18T00:39:00.154Z,67.37
2019-03-18T00:43:08.460Z,66.79
2019-03-18T00:47:16.187Z,68.65
2019-03-18T00:51:23.892Z,68.21
2019-03-18T00:55:31.697Z,68.79
2019-03-18T00:59:40.043Z,68.45
2019-03-18T01:03:48.943Z,68.51
2019-03-18T01:07:56.856Z,68.89
2019-03-18T01:12:04.772Z,68.69
2019-03-18T01:16:12.485Z,68.94
2019-03-18T01:20:20.280Z,69.56
2019-03-18T01:24:27.998Z,69.17
2019-03-18T01:28:35.807Z,69.12
2019-03-18T01:32:43.935Z,68.63
2019-03-18T01:36:51.629Z,68.72
2019-03-18T01:40:59.753Z,68.76
2019-03-18T01:45:07.782Z,69.61
2019-03-18T01:49:15.378Z,70.28
2019-03-18T01:53:23.592Z,70.75
2019-03-18T01:57:31.704Z,70.10
2019-03-18T02:01:40.543Z,70.70
2019-03-18T02:05:48.358Z,69.88
2019-03-18T02:09:56.073Z,70.46
2019-03-18T02:14:03.788Z,70.17
2019-03-18T02:18:12.136Z,70.56
2019-03-18T02:22:20.215Z,70.92
2019-03-18T02:26:28.112Z,71.50
2019-03-18T02:30:35.931Z,70.95
2019-03-18T02:34:43.640Z,70.20
2019-03-18T02:38:51.758Z,71.25
2019-03-18T02:42:59.720Z,71.66
2019-03-18T02:47:07.660Z,71.61
2019-03-18T02:51:15.539Z,71.98
2019-03-18T02:55:23.404Z,72.67
2019-03-18T02:59:31.127Z,72.17
2019-03-18T03:03:38.925Z,72.13
2019-03-18T03:07:47.046Z,71.59
2019-03-18T03:11:54.757Z,71.82
2019-03-18T03:16:02.667Z,72.72
2019-03-18T03:20:10.439Z,72.01
2019-03-18T03:24:19.156Z,72.25
2019-03-18T03:32:32.984Z,72.36
2019-03-18T03:36:42.224Z,73.27
2019-03-18T03:40:50.149Z,73.47
2019-03-18T03:44:57.836Z,73.02
2019-03-18T03:49:05.758Z,72.93
2019-03-18T03:53:13.979Z,72.38
2019-03-18T03:57:21.689Z,73.29
2019-03-18T04:01:29.805Z,72.57
2019-03-18T04:05:37.623Z,72.44
2019-03-18T04:09:45.416Z,73.05
2019-03-18T04:13:53.140Z,72.73
2019-03-18T04:18:01.352Z,72.25
2019-03-18T04:22:08.990Z,72.40
2019-03-18T04:26:17.072Z,73.28
2019-03-18T04:30:24.915Z,73.36
2019-03-18T04:34:32.781Z,73.45
2019-03-18T04:38:40.626Z,74.22
2019-03-18T04:42:48.221Z,74.27
2019-03-18T04:46:56.344Z,73.38
2019-03-18T04:51:04.236Z,74.38
2019-03-18T04:55:11.951Z,73.70
2019-03-18T04:59:20.076Z,73.33
2019-03-18T05:03:28.403Z,72.60
2019-03-18T05:07:35.990Z,72.07
2019-03-18T05:11:43.899Z,71.38
2019-03-18T05:15:52.030Z,70.43
2019-03-18T05:19:59.832Z,68.96
2019-03-18T05:24:07.754Z,68.49
2019-03-18T05:28:15.567Z,68.41
2019-03-18T05:32:23.273Z,67.92
2019-03-18T05:36:32.003Z,67.24
2019-03-18T05:40:39.820Z,65.52
2019-03-18T05:44:47.623Z,65.55
2019-03-18T05:48:55.741Z,65.19
2019-03-18T05:53:03.852Z,62.67
2019-03-18T05:57:12.065Z,63.94
2019-03-18T06:01:19.831Z,58.11
2019-03-18T06:05:28.006Z,55.94
2019-03-18T06:09:35.938Z,56.44
2019-03-18T06:13:44.230Z,57.59
2019-03-18T06:17:53.135Z,55.09
2019-03-18T06:22:01.277Z,55.45
2019-03-18T06:26:09.511Z,54.75
2019-03-18T06:30:17.307Z,54.17
2019-03-18T06:34:25.028Z,54.35
2019-03-18T06:38:32.734Z,56.15
2019-03-18T06:42:41.070Z,56.72
2019-03-18T06:46:48.571Z,54.17
2019-03-18T06:50:56.921Z,54.24
2019-03-18T06:55:05.103Z,52.29
2019-03-18T06:59:12.824Z,48.67
2019-03-18T07:03:21.028Z,48.67
2019-03-18T07:07:29.268Z,48.52
2019-03-18T07:11:37.040Z,48.59
2019-03-18T07:15:45.328Z,48.59
2019-03-18T07:19:53.492Z,48.65
2019-03-18T07:24:01.138Z,47.46
2019-03-18T07:28:09.206Z,49.10
2019-03-18T07:32:17.415Z,45.16
2019-03-18T07:36:25.137Z,44.27
2019-03-18T07:40:33.593Z,45.78
2019-03-18T07:44:41.366Z,45.39
2019-03-18T07:48:49.195Z,43.78
2019-03-18T07:52:57.399Z,45.77
2019-03-18T07:57:05.176Z,44.10
2019-03-18T08:01:13.525Z,42.84
2019-03-18T08:05:21.359Z,42.13
2019-03-18T08:09:29.060Z,41.66
2019-03-18T08:13:36.716Z,42.16
2019-03-18T08:17:44.880Z,42.17
2019-03-18T08:21:52.651Z,40.22
2019-03-18T08:26:00.501Z,41.08
2019-03-18T08:30:09.459Z,40.62
2019-03-18T08:34:17.173Z,40.77
2019-03-18T08:38:25.975Z,40.86
2019-03-18T08:42:34.099Z,40.60
2019-03-18T08:46:41.697Z,40.99
2019-03-18T08:50:49.873Z,40.41
2019-03-18T08:54:57.725Z,39.15
2019-03-18T08:59:05.568Z,40.45
2019-03-18T09:03:13.461Z,39.80
2019-03-18T09:07:21.782Z,37.64
2019-03-18T09:11:29.524Z,36.51
2019-03-18T09:15:37.691Z,36.65
2019-03-18T09:19:46.556Z,37.07
2019-03-18T09:23:54.842Z,36.27
2019-03-18T09:28:03.130Z,36.12
2019-03-18T09:32:10.884Z,38.10
2019-03-18T09:36:18.705Z,36.54
2019-03-18T09:40:29.151Z,37.03
2019-03-18T09:44:36.067Z,36.47
2019-03-18T09:48:43.764Z,35.92
2019-03-18T09:52:51.935Z,36.06
2019-03-18T09:56:59.583Z,36.12
2019-03-18T10:01:07.807Z,35.90
2019-03-18T10:05:15.871Z,36.88
2019-03-18T10:09:23.644Z,36.24
2019-03-18T10:13:31.685Z,36.23
2019-03-18T10:17:39.358Z,35.97
2019-03-18T10:21:47.577Z,34.82
2019-03-18T10:25:55.486Z,35.90
2019-03-18T10:30:03.399Z,36.03
2019-03-18T10:34:11.642Z,35.69
2019-03-18T10:38:19.884Z,35.29
2019-03-18T10:42:27.542Z,35.56
2019-03-18T10:46:35.967Z,34.53
2019-03-18T10:50:44.501Z,34.27
2019-03-18T10:54:52.411Z,34.51
2019-03-18T10:59:00.431Z,35.11
2019-03-18T11:03:08.438Z,35.14
2019-03-18T11:07:16.157Z,35.34
2019-03-18T11:11:23.858Z,35.60
2019-03-18T11:15:31.759Z,36.05
2019-03-18T11:19:39.571Z,36.38
2019-03-18T11:23:47.794Z,36.06
2019-03-18T11:27:55.492Z,35.89
2019-03-18T11:32:03.824Z,36.29
2019-03-18T11:36:11.958Z,36.27
2019-03-18T11:40:19.869Z,38.24
2019-03-18T11:44:27.707Z,39.62
2019-03-18T11:48:37.323Z,39.74
2019-03-18T11:52:45.395Z,41.38
2019-03-18T11:56:53.669Z,41.84
2019-03-18T12:01:01.671Z,40.68
2019-03-18T12:05:11.760Z,38.99
2019-03-18T12:09:19.659Z,39.10
2019-03-18T12:13:27.771Z,40.50
2019-03-18T12:17:35.570Z,41.74
2019-03-18T12:21:43.807Z,42.21
2019-03-18T12:25:51.339Z,41.10
2019-03-18T12:29:59.107Z,40.21
2019-03-18T12:34:07.011Z,40.48
2019-03-18T12:38:14.933Z,42.30
2019-03-18T12:42:23.064Z,40.81
2019-03-18T12:46:31.511Z,42.29
2019-03-18T12:50:55.356Z,42.82
2019-03-18T12:54:50.153Z,41.25
2019-03-18T12:58:57.880Z,40.85
2019-03-18T13:03:05.885Z,40.07
2019-03-18T13:07:13.808Z,39.92
2019-03-18T13:11:21.669Z,38.91
2019-03-18T13:15:30.677Z,39.22
2019-03-18T13:19:38.771Z,40.65
2019-03-18T13:23:46.371Z,39.93
2019-03-18T13:27:55.099Z,38.94
2019-03-18T13:32:03.487Z,39.34
2019-03-18T13:36:11.179Z,39.28
2019-03-18T13:40:19.051Z,39.13
2019-03-18T13:44:27.368Z,39.37
2019-03-18T13:48:34.978Z,39.20
2019-03-18T13:52:43.190Z,39.10
2019-03-18T13:56:52.022Z,39.02
2019-03-18T14:01:00.348Z,38.94
2019-03-18T14:05:08.705Z,39.19
2019-03-18T14:09:16.376Z,39.62
2019-03-18T14:13:24.617Z,39.90
2019-03-18T14:17:32.607Z,39.66
2019-03-18T14:21:40.319Z,40.46
2019-03-18T14:25:47.866Z,40.68
2019-03-18T14:29:55.529Z,41.42
2019-03-18T14:34:03.141Z,41.42
2019-03-18T14:38:10.844Z,42.35
2019-03-18T14:42:18.593Z,43.03
2019-03-18T14:46:26.168Z,43.16
2019-03-18T14:50:34.273Z,43.42
2019-03-18T14:54:41.879Z,42.87
2019-03-18T14:58:49.498Z,44.16
2019-03-18T15:02:57.734Z,44.98
2019-03-18T15:07:05.603Z,45.44
2019-03-18T15:11:13.268Z,46.20
2019-03-18T15:15:21.568Z,46.99
2019-03-18T15:19:29.264Z,47.98
2019-03-18T15:23:37.263Z,48.25
2019-03-18T15:27:45.273Z,48.75
2019-03-18T15:31:52.897Z,49.20
2019-03-18T15:36:01.010Z,50.09
2019-03-18T15:40:09.325Z,50.35
2019-03-18T15:44:17.126Z,50.79
2019-03-18T15:48:25.043Z,51.11
2019-03-18T15:52:32.756Z,51.97
2019-03-18T15:56:40.470Z,52.84
2019-03-18T16:00:48.779Z,52.14
2019-03-18T16:04:56.485Z,51.91
2019-03-18T16:09:06.039Z,52.55
2019-03-18T16:13:13.937Z,52.89
2019-03-18T16:17:21.562Z,53.95
2019-03-18T16:21:29.679Z,54.00
2019-03-18T16:25:38.401Z,54.65
2019-03-18T16:29:46.235Z,54.75
2019-03-18T16:33:54.448Z,54.85
2019-03-18T16:38:02.231Z,55.63
2019-03-18T16:42:10.050Z,56.45
2019-03-18T16:46:17.984Z,56.31
2019-03-18T16:50:26.151Z,56.54
2019-03-18T16:54:33.810Z,56.56
2019-03-18T16:58:42.102Z,56.62
2019-03-18T17:02:50.035Z,58.77
2019-03-18T17:06:57.835Z,58.33
2019-03-18T17:11:05.744Z,57.80
2019-03-18T17:15:13.801Z,58.68
2019-03-18T17:19:22.603Z,59.49
2019-03-18T17:23:30.522Z,59.78
2019-03-18T17:27:38.236Z,59.97
2019-03-18T17:31:46.455Z,59.19
2019-03-18T17:35:54.158Z,59.99
2019-03-18T17:40:01.903Z,60.37
2019-03-18T17:44:09.605Z,59.95
2019-03-18T17:48:18.898Z,60.03
2019-03-18T17:52:26.635Z,59.74
2019-03-18T17:56:34.753Z,59.47
2019-03-18T18:00:46.029Z,59.16
2019-03-18T18:05:02.958Z,60.58
2019-03-18T18:09:04.166Z,60.00
2019-03-18T18:13:12.111Z,59.69
2019-03-18T18:17:19.975Z,59.42
2019-03-18T18:21:28.047Z,59.66
2019-03-18T18:25:35.773Z,59.88
2019-03-18T18:29:44.170Z,59.59
2019-03-18T18:33:52.717Z,60.46
2019-03-18T18:38:00.506Z,60.04
2019-03-18T18:42:08.848Z,60.06
2019-03-18T18:46:16.653Z,60.78
2019-03-18T18:50:24.657Z,61.38
2019-03-18T18:54:32.785Z,61.45
2019-03-18T18:58:40.505Z,60.74
2019-03-18T19:02:48.619Z,61.95
2019-03-18T19:06:56.925Z,62.19
2019-03-18T19:11:04.735Z,62.41
2019-03-18T19:15:17.809Z,62.24
2019-03-18T19:19:25.564Z,61.97
2019-03-18T19:23:37.958Z,62.67
2019-03-18T19:27:43.665Z,63.16
2019-03-18T19:31:51.378Z,63.05
2019-03-18T19:35:59.692Z,63.47
2019-03-18T19:40:08.763Z,63.06
2019-03-18T19:44:16.543Z,63.54
2019-03-18T19:48:25.123Z,63.89
2019-03-18T19:52:33.290Z,63.84
2019-03-18T19:56:40.902Z,63.58
2019-03-18T20:00:49.746Z,64.16
2019-03-18T20:04:57.442Z,64.13
2019-03-18T20:09:06.641Z,64.57
2019-03-18T20:13:14.688Z,63.84
2019-03-18T20:17:23.417Z,63.85
2019-03-18T20:21:31.247Z,63.89
2019-03-18T20:25:39.052Z,64.12
2019-03-18T20:29:46.752Z,65.14
2019-03-18T20:33:54.559Z,65.13
2019-03-18T20:38:02.880Z,65.46
2019-03-18T20:42:10.600Z,66.08
2019-03-18T20:46:18.698Z,65.64
2019-03-18T20:50:26.623Z,66.53
2019-03-18T20:54:34.535Z,66.10
2019-03-18T20:58:42.433Z,65.82
2019-03-18T21:02:50.255Z,65.26
2019-03-18T21:06:59.768Z,64.79
2019-03-18T21:11:07.504Z,64.93
2019-03-18T21:15:15.427Z,64.58
2019-03-18T21:19:23.043Z,64.62
2019-03-18T21:23:30.938Z,64.93
2019-03-18T21:27:38.746Z,64.32
2019-03-18T21:31:46.866Z,65.01
2019-03-18T21:35:55.956Z,65.10
2019-03-18T21:40:03.821Z,65.90
2019-03-18T21:44:11.933Z,66.26
2019-03-18T21:48:20.061Z,66.43
2019-03-18T21:52:27.665Z,67.70
2019-03-18T21:56:35.786Z,66.89
2019-03-18T22:00:44.309Z,66.94
2019-03-18T22:04:51.749Z,67.33
2019-03-18T22:08:59.925Z,67.45
2019-03-18T22:13:07.657Z,68.12
2019-03-18T22:17:15.333Z,69.30
2019-03-18T22:21:23.654Z,68.06
2019-03-18T22:25:31.363Z,67.92
2019-03-18T22:29:39.482Z,68.12
2019-03-18T22:33:48.838Z,67.86
2019-03-18T22:37:56.533Z,68.94
2019-03-18T22:42:04.876Z,68.61
2019-03-18T22:46:12.772Z,69.21
2019-03-18T22:50:22.006Z,69.65
2019-03-18T22:54:30.313Z,68.18
2019-03-18T22:58:38.487Z,68.39
2019-03-18T23:02:46.146Z,69.71
2019-03-18T23:06:54.279Z,71.05
2019-03-18T23:11:02.388Z,70.37
2019-03-18T23:15:10.119Z,70.06
2019-03-18T23:19:20.882Z,69.37
2019-03-18T23:23:27.779Z,70.33
2019-03-18T23:27:35.383Z,70.38
2019-03-18T23:31:43.017Z,69.90
2019-03-18T23:35:50.805Z,70.74
2019-03-18T23:39:58.898Z,70.23
2019-03-18T23:44:06.827Z,69.83
2019-03-18T23:48:14.360Z,71.01
2019-03-18T23:52:23.004Z,70.68
2019-03-18T23:56:31.257Z,67.87
